sensor_id;sensor_type;location;lat;lon;timestamp;temperature;humidity
67354;SHT30;54238;52.278;21.056;2023-07-29T00:01:40;19.53;79.51
67354;SHT30;54238;52.278;21.056;2023-07-29T00:04:09;19.55;79.43
67354;SHT30;54238;52.278;21.056;2023-07-29T00:06:37;19.54;79.41
67354;SHT30;54238;52.278;21.056;2023-07-29T00:09:04;19.54;79.40
67354;SHT30;54238;52.278;21.056;2023-07-29T00:11:37;19.54;79.41
67354;SHT30;54238;52.278;21.056;2023-07-29T00:14:06;19.53;79.42
67354;SHT30;54238;52.278;21.056;2023-07-29T00:16:38;19.52;79.40
67354;SHT30;54238;52.278;21.056;2023-07-29T00:19:06;19.50;79.42
67354;SHT30;54238;52.278;21.056;2023-07-29T00:21:33;19.48;79.42
67354;SHT30;54238;52.278;21.056;2023-07-29T00:24:02;19.48;79.40
67354;SHT30;54238;52.278;21.056;2023-07-29T00:26:29;19.46;79.37
67354;SHT30;54238;52.278;21.056;2023-07-29T00:28:57;19.44;79.34
67354;SHT30;54238;52.278;21.056;2023-07-29T00:31:27;19.40;79.36
67354;SHT30;54238;52.278;21.056;2023-07-29T00:33:56;19.37;79.43
67354;SHT30;54238;52.278;21.056;2023-07-29T00:36:30;19.34;79.48
67354;SHT30;54238;52.278;21.056;2023-07-29T00:38:57;19.30;79.51
67354;SHT30;54238;52.278;21.056;2023-07-29T00:41:29;19.31;79.54
67354;SHT30;54238;52.278;21.056;2023-07-29T00:44:01;19.27;79.60
67354;SHT30;54238;52.278;21.056;2023-07-29T00:46:33;19.26;79.62
67354;SHT30;54238;52.278;21.056;2023-07-29T00:49:03;19.25;79.71
67354;SHT30;54238;52.278;21.056;2023-07-29T00:51:30;19.23;79.74
67354;SHT30;54238;52.278;21.056;2023-07-29T00:54:00;19.19;79.82
67354;SHT30;54238;52.278;21.056;2023-07-29T00:56:30;19.17;79.90
67354;SHT30;54238;52.278;21.056;2023-07-29T00:58:57;19.15;79.94
67354;SHT30;54238;52.278;21.056;2023-07-29T01:01:31;19.12;80.00
67354;SHT30;54238;52.278;21.056;2023-07-29T01:04:02;19.10;79.97
67354;SHT30;54238;52.278;21.056;2023-07-29T01:17:55;18.88;80.25
67354;SHT30;54238;52.278;21.056;2023-07-29T01:20:38;18.83;80.34
67354;SHT30;54238;52.278;21.056;2023-07-29T01:23:09;18.78;80.39
67354;SHT30;54238;52.278;21.056;2023-07-29T01:25:39;18.76;80.45
67354;SHT30;54238;52.278;21.056;2023-07-29T01:28:06;18.71;80.41
67354;SHT30;54238;52.278;21.056;2023-07-29T01:30:37;18.67;80.46
67354;SHT30;54238;52.278;21.056;2023-07-29T01:33:25;18.64;80.51
67354;SHT30;54238;52.278;21.056;2023-07-29T01:36:01;18.60;80.53
67354;SHT30;54238;52.278;21.056;2023-07-29T01:38:37;18.58;80.57
67354;SHT30;54238;52.278;21.056;2023-07-29T01:41:12;18.56;80.55
67354;SHT30;54238;52.278;21.056;2023-07-29T01:43:46;18.53;80.57
67354;SHT30;54238;52.278;21.056;2023-07-29T01:46:16;18.50;80.64
67354;SHT30;54238;52.278;21.056;2023-07-29T01:48:50;18.49;80.75
67354;SHT30;54238;52.278;21.056;2023-07-29T01:51:22;18.48;80.76
67354;SHT30;54238;52.278;21.056;2023-07-29T01:53:49;18.47;80.79
67354;SHT30;54238;52.278;21.056;2023-07-29T01:56:19;18.46;80.73
67354;SHT30;54238;52.278;21.056;2023-07-29T01:58:48;18.45;80.71
67354;SHT30;54238;52.278;21.056;2023-07-29T02:01:17;18.42;80.73
67354;SHT30;54238;52.278;21.056;2023-07-29T02:03:51;18.40;80.75
67354;SHT30;54238;52.278;21.056;2023-07-29T02:06:21;18.37;80.80
67354;SHT30;54238;52.278;21.056;2023-07-29T02:08:53;18.33;80.83
67354;SHT30;54238;52.278;21.056;2023-07-29T02:11:25;18.31;80.92
67354;SHT30;54238;52.278;21.056;2023-07-29T02:13:57;18.28;80.93
67354;SHT30;54238;52.278;21.056;2023-07-29T02:16:27;18.27;80.99
67354;SHT30;54238;52.278;21.056;2023-07-29T02:18:56;18.26;80.99
67354;SHT30;54238;52.278;21.056;2023-07-29T02:21:26;18.25;81.00
67354;SHT30;54238;52.278;21.056;2023-07-29T02:24:01;18.24;81.04
67354;SHT30;54238;52.278;21.056;2023-07-29T02:26:33;18.23;81.07
67354;SHT30;54238;52.278;21.056;2023-07-29T02:29:02;18.23;81.03
67354;SHT30;54238;52.278;21.056;2023-07-29T02:31:32;18.22;81.01
67354;SHT30;54238;52.278;21.056;2023-07-29T02:33:59;18.23;81.01
67354;SHT30;54238;52.278;21.056;2023-07-29T02:36:27;18.22;81.00
67354;SHT30;54238;52.278;21.056;2023-07-29T02:39:01;18.20;81.01
67354;SHT30;54238;52.278;21.056;2023-07-29T02:41:30;18.20;81.00
67354;SHT30;54238;52.278;21.056;2023-07-29T02:43:59;18.19;80.95
67354;SHT30;54238;52.278;21.056;2023-07-29T02:46:29;18.19;80.91
67354;SHT30;54238;52.278;21.056;2023-07-29T02:49:01;18.17;80.85
67354;SHT30;54238;52.278;21.056;2023-07-29T02:51:32;18.14;80.75
67354;SHT30;54238;52.278;21.056;2023-07-29T02:53:59;18.11;80.70
67354;SHT30;54238;52.278;21.056;2023-07-29T02:56:26;18.10;80.71
67354;SHT30;54238;52.278;21.056;2023-07-29T02:58:56;18.07;80.64
67354;SHT30;54238;52.278;21.056;2023-07-29T03:01:23;18.03;80.60
67354;SHT30;54238;52.278;21.056;2023-07-29T03:03:51;18.00;80.62
67354;SHT30;54238;52.278;21.056;2023-07-29T03:06:23;17.97;80.60
67354;SHT30;54238;52.278;21.056;2023-07-29T03:08:51;17.94;80.64
67354;SHT30;54238;52.278;21.056;2023-07-29T03:11:17;17.91;80.70
67354;SHT30;54238;52.278;21.056;2023-07-29T03:13:51;17.90;80.73
67354;SHT30;54238;52.278;21.056;2023-07-29T03:16:21;17.89;80.80
67354;SHT30;54238;52.278;21.056;2023-07-29T03:18:50;17.90;80.87
67354;SHT30;54238;52.278;21.056;2023-07-29T03:21:22;17.91;80.92
67354;SHT30;54238;52.278;21.056;2023-07-29T03:23:52;17.91;80.90
67354;SHT30;54238;52.278;21.056;2023-07-29T03:26:26;17.90;80.86
67354;SHT30;54238;52.278;21.056;2023-07-29T03:28:53;17.89;80.94
67354;SHT30;54238;52.278;21.056;2023-07-29T03:31:25;17.89;81.00
67354;SHT30;54238;52.278;21.056;2023-07-29T03:33:55;17.90;80.93
67354;SHT30;54238;52.278;21.056;2023-07-29T03:36:29;17.89;80.84
67354;SHT30;54238;52.278;21.056;2023-07-29T03:38:59;17.83;80.74
67354;SHT30;54238;52.278;21.056;2023-07-29T03:41:30;17.79;80.88
67354;SHT30;54238;52.278;21.056;2023-07-29T03:44:00;17.75;80.95
67354;SHT30;54238;52.278;21.056;2023-07-29T03:46:31;17.72;81.09
67354;SHT30;54238;52.278;21.056;2023-07-29T03:49:03;17.70;81.30
67354;SHT30;54238;52.278;21.056;2023-07-29T03:51:33;17.71;81.23
67354;SHT30;54238;52.278;21.056;2023-07-29T03:54:00;17.71;81.25
67354;SHT30;54238;52.278;21.056;2023-07-29T03:56:28;17.71;81.27
67354;SHT30;54238;52.278;21.056;2023-07-29T03:59:02;17.72;81.38
67354;SHT30;54238;52.278;21.056;2023-07-29T04:01:31;17.76;81.32
67354;SHT30;54238;52.278;21.056;2023-07-29T04:04:03;17.77;81.41
67354;SHT30;54238;52.278;21.056;2023-07-29T04:06:30;17.80;81.46
67354;SHT30;54238;52.278;21.056;2023-07-29T04:09:00;17.83;81.60
67354;SHT30;54238;52.278;21.056;2023-07-29T04:11:27;17.87;81.43
67354;SHT30;54238;52.278;21.056;2023-07-29T04:13:54;17.90;81.23
67354;SHT30;54238;52.278;21.056;2023-07-29T04:16:24;17.90;81.15
67354;SHT30;54238;52.278;21.056;2023-07-29T04:18:51;17.92;81.20
67354;SHT30;54238;52.278;21.056;2023-07-29T04:21:20;17.92;81.26
67354;SHT30;54238;52.278;21.056;2023-07-29T04:23:47;17.95;81.38
67354;SHT30;54238;52.278;21.056;2023-07-29T04:26:16;18.00;81.43
67354;SHT30;54238;52.278;21.056;2023-07-29T04:28:51;18.02;81.34
67354;SHT30;54238;52.278;21.056;2023-07-29T04:31:19;18.05;81.44
67354;SHT30;54238;52.278;21.056;2023-07-29T04:33:50;18.09;81.31
67354;SHT30;54238;52.278;21.056;2023-07-29T04:36:17;18.13;81.17
67354;SHT30;54238;52.278;21.056;2023-07-29T04:38:47;18.15;81.05
67354;SHT30;54238;52.278;21.056;2023-07-29T04:41:15;18.19;80.92
67354;SHT30;54238;52.278;21.056;2023-07-29T04:43:46;18.20;80.83
67354;SHT30;54238;52.278;21.056;2023-07-29T04:46:18;18.23;80.85
67354;SHT30;54238;52.278;21.056;2023-07-29T04:48:48;18.28;80.83
67354;SHT30;54238;52.278;21.056;2023-07-29T04:51:17;18.33;80.81
67354;SHT30;54238;52.278;21.056;2023-07-29T04:53:44;18.39;80.75
67354;SHT30;54238;52.278;21.056;2023-07-29T04:56:14;18.47;80.56
67354;SHT30;54238;52.278;21.056;2023-07-29T04:58:41;18.53;80.08
67354;SHT30;54238;52.278;21.056;2023-07-29T05:01:07;18.52;79.56
67354;SHT30;54238;52.278;21.056;2023-07-29T05:03:35;18.52;79.48
67354;SHT30;54238;52.278;21.056;2023-07-29T05:06:03;18.55;79.40
67354;SHT30;54238;52.278;21.056;2023-07-29T05:08:30;18.56;79.48
67354;SHT30;54238;52.278;21.056;2023-07-29T05:10:59;18.58;79.53
67354;SHT30;54238;52.278;21.056;2023-07-29T05:13:27;18.61;79.20
67354;SHT30;54238;52.278;21.056;2023-07-29T05:15:56;18.65;79.11
67354;SHT30;54238;52.278;21.056;2023-07-29T05:18:29;18.71;79.01
67354;SHT30;54238;52.278;21.056;2023-07-29T05:20:56;18.76;78.83
67354;SHT30;54238;52.278;21.056;2023-07-29T05:23:23;18.84;78.82
67354;SHT30;54238;52.278;21.056;2023-07-29T05:25:53;18.93;78.73
67354;SHT30;54238;52.278;21.056;2023-07-29T05:28:25;19.03;78.50
67354;SHT30;54238;52.278;21.056;2023-07-29T05:30:55;19.14;78.34
67354;SHT30;54238;52.278;21.056;2023-07-29T05:33:22;19.27;78.08
67354;SHT30;54238;52.278;21.056;2023-07-29T05:35:54;19.42;77.63
67354;SHT30;54238;52.278;21.056;2023-07-29T05:38:21;19.52;77.05
67354;SHT30;54238;52.278;21.056;2023-07-29T05:40:50;19.60;76.48
67354;SHT30;54238;52.278;21.056;2023-07-29T05:43:21;19.67;76.12
67354;SHT30;54238;52.278;21.056;2023-07-29T05:45:50;19.70;75.76
67354;SHT30;54238;52.278;21.056;2023-07-29T05:48:23;19.72;75.47
67354;SHT30;54238;52.278;21.056;2023-07-29T05:50:55;19.74;75.27
67354;SHT30;54238;52.278;21.056;2023-07-29T05:53:25;19.73;75.15
67354;SHT30;54238;52.278;21.056;2023-07-29T05:55:52;19.74;75.03
67354;SHT30;54238;52.278;21.056;2023-07-29T05:58:21;19.75;74.84
67354;SHT30;54238;52.278;21.056;2023-07-29T06:00:48;19.77;74.82
67354;SHT30;54238;52.278;21.056;2023-07-29T06:03:22;19.82;74.68
67354;SHT30;54238;52.278;21.056;2023-07-29T06:05:49;19.86;74.57
67354;SHT30;54238;52.278;21.056;2023-07-29T06:08:19;19.93;74.41
67354;SHT30;54238;52.278;21.056;2023-07-29T06:10:51;19.98;74.22
67354;SHT30;54238;52.278;21.056;2023-07-29T06:13:18;20.00;73.99
67354;SHT30;54238;52.278;21.056;2023-07-29T06:15:50;20.00;73.72
67354;SHT30;54238;52.278;21.056;2023-07-29T06:18:17;20.05;73.58
67354;SHT30;54238;52.278;21.056;2023-07-29T06:20:46;20.07;73.27
67354;SHT30;54238;52.278;21.056;2023-07-29T06:23:20;20.14;73.20
67354;SHT30;54238;52.278;21.056;2023-07-29T06:25:49;20.21;72.92
67354;SHT30;54238;52.278;21.056;2023-07-29T06:28:18;20.26;72.66
67354;SHT30;54238;52.278;21.056;2023-07-29T06:30:52;20.34;72.25
67354;SHT30;54238;52.278;21.056;2023-07-29T06:33:21;20.45;71.81
67354;SHT30;54238;52.278;21.056;2023-07-29T06:35:48;20.56;71.44
67354;SHT30;54238;52.278;21.056;2023-07-29T06:38:16;20.65;71.23
67354;SHT30;54238;52.278;21.056;2023-07-29T06:40:50;20.73;71.13
67354;SHT30;54238;52.278;21.056;2023-07-29T06:43:20;20.88;70.98
67354;SHT30;54238;52.278;21.056;2023-07-29T06:45:52;21.07;70.73
67354;SHT30;54238;52.278;21.056;2023-07-29T06:48:21;21.25;70.46
67354;SHT30;54238;52.278;21.056;2023-07-29T06:50:51;21.39;69.66
67354;SHT30;54238;52.278;21.056;2023-07-29T06:53:18;21.54;69.38
67354;SHT30;54238;52.278;21.056;2023-07-29T06:55:48;21.67;69.08
67354;SHT30;54238;52.278;21.056;2023-07-29T06:58:17;21.73;68.80
67354;SHT30;54238;52.278;21.056;2023-07-29T07:00:47;21.80;68.53
67354;SHT30;54238;52.278;21.056;2023-07-29T07:03:14;21.83;68.12
67354;SHT30;54238;52.278;21.056;2023-07-29T07:05:43;21.81;67.75
67354;SHT30;54238;52.278;21.056;2023-07-29T07:08:13;21.81;67.20
67354;SHT30;54238;52.278;21.056;2023-07-29T07:10:40;21.83;66.80
67354;SHT30;54238;52.278;21.056;2023-07-29T07:13:12;21.88;66.61
67354;SHT30;54238;52.278;21.056;2023-07-29T07:15:39;21.94;66.40
67354;SHT30;54238;52.278;21.056;2023-07-29T07:18:07;22.00;66.17
67354;SHT30;54238;52.278;21.056;2023-07-29T07:20:37;22.07;66.14
67354;SHT30;54238;52.278;21.056;2023-07-29T07:23:04;22.05;65.47
67354;SHT30;54238;52.278;21.056;2023-07-29T07:25:39;22.09;65.35
67354;SHT30;54238;52.278;21.056;2023-07-29T07:28:11;22.13;64.64
67354;SHT30;54238;52.278;21.056;2023-07-29T07:30:40;22.15;64.36
67354;SHT30;54238;52.278;21.056;2023-07-29T07:33:15;22.18;64.15
67354;SHT30;54238;52.278;21.056;2023-07-29T07:35:47;22.22;63.71
67354;SHT30;54238;52.278;21.056;2023-07-29T07:38:14;22.19;63.80
67354;SHT30;54238;52.278;21.056;2023-07-29T07:40:41;22.25;63.92
67354;SHT30;54238;52.278;21.056;2023-07-29T07:43:09;22.34;63.91
67354;SHT30;54238;52.278;21.056;2023-07-29T07:45:40;22.42;63.88
67354;SHT30;54238;52.278;21.056;2023-07-29T07:48:08;22.54;64.10
67354;SHT30;54238;52.278;21.056;2023-07-29T07:50:36;22.68;63.88
67354;SHT30;54238;52.278;21.056;2023-07-29T07:53:03;22.79;63.80
67354;SHT30;54238;52.278;21.056;2023-07-29T07:55:35;22.87;63.84
67354;SHT30;54238;52.278;21.056;2023-07-29T07:58:04;22.91;62.85
67354;SHT30;54238;52.278;21.056;2023-07-29T08:00:32;22.89;62.65
67354;SHT30;54238;52.278;21.056;2023-07-29T08:03:06;22.96;62.91
67354;SHT30;54238;52.278;21.056;2023-07-29T08:05:35;23.14;62.55
67354;SHT30;54238;52.278;21.056;2023-07-29T08:08:05;23.27;62.55
67354;SHT30;54238;52.278;21.056;2023-07-29T08:10:37;23.38;61.86
67354;SHT30;54238;52.278;21.056;2023-07-29T08:13:09;23.43;61.53
67354;SHT30;54238;52.278;21.056;2023-07-29T08:15:40;23.47;60.37
67354;SHT30;54238;52.278;21.056;2023-07-29T08:18:12;23.38;59.38
67354;SHT30;54238;52.278;21.056;2023-07-29T08:20:39;23.28;59.24
67354;SHT30;54238;52.278;21.056;2023-07-29T08:23:07;23.24;59.30
67354;SHT30;54238;52.278;21.056;2023-07-29T08:25:40;23.20;59.93
67354;SHT30;54238;52.278;21.056;2023-07-29T08:28:09;23.23;60.46
67354;SHT30;54238;52.278;21.056;2023-07-29T08:30:41;23.25;60.35
67354;SHT30;54238;52.278;21.056;2023-07-29T08:33:14;23.36;59.91
67354;SHT30;54238;52.278;21.056;2023-07-29T08:35:44;23.58;59.91
67354;SHT30;54238;52.278;21.056;2023-07-29T08:38:13;23.78;59.03
67354;SHT30;54238;52.278;21.056;2023-07-29T08:40:52;23.85;58.73
67354;SHT30;54238;52.278;21.056;2023-07-29T08:43:28;23.87;58.52
67354;SHT30;54238;52.278;21.056;2023-07-29T08:46:00;23.99;58.05
67354;SHT30;54238;52.278;21.056;2023-07-29T08:48:39;24.21;57.78
67354;SHT30;54238;52.278;21.056;2023-07-29T08:51:12;24.47;57.46
67354;SHT30;54238;52.278;21.056;2023-07-29T08:53:39;24.68;57.03
67354;SHT30;54238;52.278;21.056;2023-07-29T08:56:06;24.98;56.57
67354;SHT30;54238;52.278;21.056;2023-07-29T08:58:39;25.18;54.50
67354;SHT30;54238;52.278;21.056;2023-07-29T09:01:09;25.30;53.67
67354;SHT30;54238;52.278;21.056;2023-07-29T09:03:36;25.42;53.28
67354;SHT30;54238;52.278;21.056;2023-07-29T09:06:04;25.50;52.25
67354;SHT30;54238;52.278;21.056;2023-07-29T09:08:35;25.36;52.45
67354;SHT30;54238;52.278;21.056;2023-07-29T09:11:05;25.46;53.01
67354;SHT30;54238;52.278;21.056;2023-07-29T09:13:35;25.55;52.15
67354;SHT30;54238;52.278;21.056;2023-07-29T09:16:02;25.60;52.40
67354;SHT30;54238;52.278;21.056;2023-07-29T09:18:35;25.64;52.80
67354;SHT30;54238;52.278;21.056;2023-07-29T09:21:05;25.66;52.35
67354;SHT30;54238;52.278;21.056;2023-07-29T09:23:39;25.58;52.23
67354;SHT30;54238;52.278;21.056;2023-07-29T09:26:13;25.49;50.64
67354;SHT30;54238;52.278;21.056;2023-07-29T09:28:42;25.48;50.50
67354;SHT30;54238;52.278;21.056;2023-07-29T09:31:18;25.34;50.68
67354;SHT30;54238;52.278;21.056;2023-07-29T09:34:02;25.31;51.13
67354;SHT30;54238;52.278;21.056;2023-07-29T09:36:31;25.53;51.15
67354;SHT30;54238;52.278;21.056;2023-07-29T09:39:00;25.81;51.25
67354;SHT30;54238;52.278;21.056;2023-07-29T09:41:28;26.15;50.82
67354;SHT30;54238;52.278;21.056;2023-07-29T09:44:00;26.49;49.60
67354;SHT30;54238;52.278;21.056;2023-07-29T09:46:34;26.79;48.79
67354;SHT30;54238;52.278;21.056;2023-07-29T09:49:10;27.09;48.50
67354;SHT30;54238;52.278;21.056;2023-07-29T09:51:38;27.26;47.66
67354;SHT30;54238;52.278;21.056;2023-07-29T09:54:06;27.20;47.66
67354;SHT30;54238;52.278;21.056;2023-07-29T09:56:39;27.26;47.53
67354;SHT30;54238;52.278;21.056;2023-07-29T09:59:11;27.54;45.81
67354;SHT30;54238;52.278;21.056;2023-07-29T10:01:47;27.77;44.34
67354;SHT30;54238;52.278;21.056;2023-07-29T10:04:19;27.95;45.06
67354;SHT30;54238;52.278;21.056;2023-07-29T10:06:50;28.26;44.85
67354;SHT30;54238;52.278;21.056;2023-07-29T10:09:23;28.61;43.28
67354;SHT30;54238;52.278;21.056;2023-07-29T10:11:55;28.89;42.56
67354;SHT30;54238;52.278;21.056;2023-07-29T10:14:23;29.09;41.28
67354;SHT30;54238;52.278;21.056;2023-07-29T10:16:57;29.20;41.45
67354;SHT30;54238;52.278;21.056;2023-07-29T10:19:27;29.38;41.01
67354;SHT30;54238;52.278;21.056;2023-07-29T10:22:00;29.49;40.89
67354;SHT30;54238;52.278;21.056;2023-07-29T10:24:30;29.27;41.20
67354;SHT30;54238;52.278;21.056;2023-07-29T10:27:04;29.18;41.13
67354;SHT30;54238;52.278;21.056;2023-07-29T10:29:38;29.31;40.83
67354;SHT30;54238;52.278;21.056;2023-07-29T10:32:11;29.54;40.90
67354;SHT30;54238;52.278;21.056;2023-07-29T10:34:46;29.81;40.98
67354;SHT30;54238;52.278;21.056;2023-07-29T10:37:13;30.02;39.10
67354;SHT30;54238;52.278;21.056;2023-07-29T10:39:54;30.06;38.49
67354;SHT30;54238;52.278;21.056;2023-07-29T10:42:24;30.02;37.68
67354;SHT30;54238;52.278;21.056;2023-07-29T10:44:53;29.95;38.44
67354;SHT30;54238;52.278;21.056;2023-07-29T10:49:55;30.37;38.85
67354;SHT30;54238;52.278;21.056;2023-07-29T10:55:03;31.03;37.60
67354;SHT30;54238;52.278;21.056;2023-07-29T10:57:56;31.16;36.07
67354;SHT30;54238;52.278;21.056;2023-07-29T11:00:45;31.29;36.26
67354;SHT30;54238;52.278;21.056;2023-07-29T11:03:18;31.40;35.72
67354;SHT30;54238;52.278;21.056;2023-07-29T11:05:49;31.61;35.93
67354;SHT30;54238;52.278;21.056;2023-07-29T11:11:01;32.29;35.78
67354;SHT30;54238;52.278;21.056;2023-07-29T11:13:35;32.48;33.40
67354;SHT30;54238;52.278;21.056;2023-07-29T11:16:04;32.51;34.08
67354;SHT30;54238;52.278;21.056;2023-07-29T11:18:36;32.62;34.23
67354;SHT30;54238;52.278;21.056;2023-07-29T11:21:08;32.81;34.84
67354;SHT30;54238;52.278;21.056;2023-07-29T11:23:36;33.13;33.88
67354;SHT30;54238;52.278;21.056;2023-07-29T11:26:06;33.31;33.09
67354;SHT30;54238;52.278;21.056;2023-07-29T11:28:41;33.42;32.37
67354;SHT30;54238;52.278;21.056;2023-07-29T11:31:08;33.47;33.15
67354;SHT30;54238;52.278;21.056;2023-07-29T11:33:38;33.69;32.43
67354;SHT30;54238;52.278;21.056;2023-07-29T11:36:06;33.85;31.03
67354;SHT30;54238;52.278;21.056;2023-07-29T11:38:35;33.64;30.70
67354;SHT30;54238;52.278;21.056;2023-07-29T11:41:06;33.45;31.28
67354;SHT30;54238;52.278;21.056;2023-07-29T11:43:35;33.32;31.50
67354;SHT30;54238;52.278;21.056;2023-07-29T11:46:05;33.27;31.86
67354;SHT30;54238;52.278;21.056;2023-07-29T11:48:39;33.41;31.91
67354;SHT30;54238;52.278;21.056;2023-07-29T11:51:13;33.40;31.70
67354;SHT30;54238;52.278;21.056;2023-07-29T11:53:45;33.44;32.07
67354;SHT30;54238;52.278;21.056;2023-07-29T11:56:18;33.51;32.44
67354;SHT30;54238;52.278;21.056;2023-07-29T11:58:52;33.78;32.90
67354;SHT30;54238;52.278;21.056;2023-07-29T12:01:22;34.01;32.09
67354;SHT30;54238;52.278;21.056;2023-07-29T12:03:52;34.35;31.87
67354;SHT30;54238;52.278;21.056;2023-07-29T12:06:23;34.74;31.27
67354;SHT30;54238;52.278;21.056;2023-07-29T12:08:56;34.98;30.30
67354;SHT30;54238;52.278;21.056;2023-07-29T12:11:26;35.07;30.80
67354;SHT30;54238;52.278;21.056;2023-07-29T12:14:00;35.28;30.57
67354;SHT30;54238;52.278;21.056;2023-07-29T12:16:30;35.67;30.15
67354;SHT30;54238;52.278;21.056;2023-07-29T12:19:01;35.79;29.40
67354;SHT30;54238;52.278;21.056;2023-07-29T12:21:28;35.88;29.48
67354;SHT30;54238;52.278;21.056;2023-07-29T12:23:58;35.91;29.23
67354;SHT30;54238;52.278;21.056;2023-07-29T12:26:29;35.96;29.23
67354;SHT30;54238;52.278;21.056;2023-07-29T12:28:58;35.75;28.63
67354;SHT30;54238;52.278;21.056;2023-07-29T12:31:32;35.24;29.38
67354;SHT30;54238;52.278;21.056;2023-07-29T12:34:08;35.25;30.43
67354;SHT30;54238;52.278;21.056;2023-07-29T12:36:42;35.39;29.78
67354;SHT30;54238;52.278;21.056;2023-07-29T12:39:23;35.36;30.18
67354;SHT30;54238;52.278;21.056;2023-07-29T12:41:56;35.06;29.91
67354;SHT30;54238;52.278;21.056;2023-07-29T12:44:31;34.88;29.91
67354;SHT30;54238;52.278;21.056;2023-07-29T12:47:06;34.76;30.27
67354;SHT30;54238;52.278;21.056;2023-07-29T12:49:38;34.86;30.49
67354;SHT30;54238;52.278;21.056;2023-07-29T12:52:09;35.15;30.50
67354;SHT30;54238;52.278;21.056;2023-07-29T12:54:39;35.23;29.96
67354;SHT30;54238;52.278;21.056;2023-07-29T12:57:09;34.72;30.01
67354;SHT30;54238;52.278;21.056;2023-07-29T12:59:36;34.40;30.77
67354;SHT30;54238;52.278;21.056;2023-07-29T13:02:06;34.20;31.92
67354;SHT30;54238;52.278;21.056;2023-07-29T13:04:35;34.35;31.50
67354;SHT30;54238;52.278;21.056;2023-07-29T13:07:06;34.63;31.02
67354;SHT30;54238;52.278;21.056;2023-07-29T13:09:36;34.60;31.26
67354;SHT30;54238;52.278;21.056;2023-07-29T13:12:05;34.41;31.51
67354;SHT30;54238;52.278;21.056;2023-07-29T13:14:35;34.17;31.60
67354;SHT30;54238;52.278;21.056;2023-07-29T13:17:05;33.97;31.87
67354;SHT30;54238;52.278;21.056;2023-07-29T13:19:32;33.65;31.90
67354;SHT30;54238;52.278;21.056;2023-07-29T13:22:03;33.34;32.17
67354;SHT30;54238;52.278;21.056;2023-07-29T13:24:33;33.32;32.75
67354;SHT30;54238;52.278;21.056;2023-07-29T13:27:04;33.13;32.76
67354;SHT30;54238;52.278;21.056;2023-07-29T13:29:41;33.12;32.86
67354;SHT30;54238;52.278;21.056;2023-07-29T13:32:12;33.51;32.58
67354;SHT30;54238;52.278;21.056;2023-07-29T13:34:44;34.07;31.68
67354;SHT30;54238;52.278;21.056;2023-07-29T13:37:14;34.71;31.42
67354;SHT30;54238;52.278;21.056;2023-07-29T13:39:46;35.29;30.54
67354;SHT30;54238;52.278;21.056;2023-07-29T13:42:15;35.58;30.20
67354;SHT30;54238;52.278;21.056;2023-07-29T13:44:47;35.55;29.89
67354;SHT30;54238;52.278;21.056;2023-07-29T13:47:16;35.71;29.90
67354;SHT30;54238;52.278;21.056;2023-07-29T13:49:45;35.50;29.87
67354;SHT30;54238;52.278;21.056;2023-07-29T13:52:13;35.39;30.20
67354;SHT30;54238;52.278;21.056;2023-07-29T13:54:43;35.55;30.17
67354;SHT30;54238;52.278;21.056;2023-07-29T13:57:15;35.79;30.28
67354;SHT30;54238;52.278;21.056;2023-07-29T13:59:44;36.10;30.20
67354;SHT30;54238;52.278;21.056;2023-07-29T14:02:11;36.40;29.17
67354;SHT30;54238;52.278;21.056;2023-07-29T14:04:40;36.52;29.65
67354;SHT30;54238;52.278;21.056;2023-07-29T14:07:09;36.42;29.77
67354;SHT30;54238;52.278;21.056;2023-07-29T14:09:41;36.16;29.58
67354;SHT30;54238;52.278;21.056;2023-07-29T14:12:12;35.92;29.74
67354;SHT30;54238;52.278;21.056;2023-07-29T14:14:43;35.58;29.92
67354;SHT30;54238;52.278;21.056;2023-07-29T14:17:13;35.20;30.39
67354;SHT30;54238;52.278;21.056;2023-07-29T14:19:40;34.78;31.00
67354;SHT30;54238;52.278;21.056;2023-07-29T14:22:10;34.47;31.29
67354;SHT30;54238;52.278;21.056;2023-07-29T14:24:42;34.08;31.70
67354;SHT30;54238;52.278;21.056;2023-07-29T14:27:11;33.82;31.87
67354;SHT30;54238;52.278;21.056;2023-07-29T14:29:41;33.59;32.32
67354;SHT30;54238;52.278;21.056;2023-07-29T14:32:08;33.57;32.68
67354;SHT30;54238;52.278;21.056;2023-07-29T14:34:37;33.59;33.18
67354;SHT30;54238;52.278;21.056;2023-07-29T14:37:05;33.56;33.04
67354;SHT30;54238;52.278;21.056;2023-07-29T14:39:32;33.65;32.72
67354;SHT30;54238;52.278;21.056;2023-07-29T14:42:01;33.77;33.01
67354;SHT30;54238;52.278;21.056;2023-07-29T14:44:30;33.83;32.94
67354;SHT30;54238;52.278;21.056;2023-07-29T14:47:00;34.01;32.73
67354;SHT30;54238;52.278;21.056;2023-07-29T14:49:27;34.21;32.32
67354;SHT30;54238;52.278;21.056;2023-07-29T14:51:56;34.37;32.43
67354;SHT30;54238;52.278;21.056;2023-07-29T14:54:26;34.44;32.26
67354;SHT30;54238;52.278;21.056;2023-07-29T14:57:00;34.37;32.01
67354;SHT30;54238;52.278;21.056;2023-07-29T14:59:30;34.47;32.06
67354;SHT30;54238;52.278;21.056;2023-07-29T15:01:57;34.72;32.19
67354;SHT30;54238;52.278;21.056;2023-07-29T15:04:26;34.95;31.83
67354;SHT30;54238;52.278;21.056;2023-07-29T15:06:53;35.18;30.93
67354;SHT30;54238;52.278;21.056;2023-07-29T15:09:20;35.24;30.87
67354;SHT30;54238;52.278;21.056;2023-07-29T15:11:47;35.10;30.95
67354;SHT30;54238;52.278;21.056;2023-07-29T15:14:17;34.81;31.12
67354;SHT30;54238;52.278;21.056;2023-07-29T15:16:48;34.65;31.53
67354;SHT30;54238;52.278;21.056;2023-07-29T15:19:17;34.62;31.98
67354;SHT30;54238;52.278;21.056;2023-07-29T15:21:44;34.57;32.12
67354;SHT30;54238;52.278;21.056;2023-07-29T15:24:12;34.55;32.58
67354;SHT30;54238;52.278;21.056;2023-07-29T15:26:43;34.54;32.60
67354;SHT30;54238;52.278;21.056;2023-07-29T15:29:10;34.34;32.72
67354;SHT30;54238;52.278;21.056;2023-07-29T15:31:40;34.03;32.92
67354;SHT30;54238;52.278;21.056;2023-07-29T15:34:08;33.62;33.39
67354;SHT30;54238;52.278;21.056;2023-07-29T15:36:38;33.19;34.10
67354;SHT30;54238;52.278;21.056;2023-07-29T15:39:07;32.85;34.80
67354;SHT30;54238;52.278;21.056;2023-07-29T15:41:40;32.67;35.12
67354;SHT30;54238;52.278;21.056;2023-07-29T15:44:07;32.56;35.46
67354;SHT30;54238;52.278;21.056;2023-07-29T15:46:34;32.53;35.65
67354;SHT30;54238;52.278;21.056;2023-07-29T15:49:01;32.57;35.82
67354;SHT30;54238;52.278;21.056;2023-07-29T15:51:28;32.60;35.92
67354;SHT30;54238;52.278;21.056;2023-07-29T15:54:03;32.47;36.41